LGKZ/KZI METAR and TAF weather

Enter ICAO airport designator
Station Type Date Time Source
LGKZ METAR 2020/10/29 16:50 UTC NOAA

LGKZ 291650Z AUTO 00000KT //// // ////// 11/08 Q1017 RE//


Station Type Date Time Source
LGKZ Decoded METAR 2020/10/29 16:50 UTC NOAA

Kozani Airport , Greece (LGKZ) 40-18N 021-47E 627M
Oct 29, 2020 - 12:50 PM EDT / 2020.10.29 1650 UTC
Wind: Calm:0
Temperature: 51 F (11 C)
Dew Point: 46 F (8 C)
Relative Humidity: 81%
Pressure (altimeter): 30.03 in. Hg (1017 hPa)
ob: LGKZ 291650Z AUTO 00000KT //// // ////// 11/08 Q1017 RE//
cycle: 17

Station Type Date Time Source
LGKZ TAF UTC NOAA

Error!

Example: see airport list